createdAt,value
2023-05-17T00:00:54.317Z,45.28
2023-05-17T00:03:22.173Z,45.52
2023-05-17T00:05:49.940Z,45.59
2023-05-17T00:08:17.466Z,45.60
2023-05-17T00:10:45.162Z,45.73
2023-05-17T00:13:12.747Z,45.66
2023-05-17T00:15:40.367Z,45.84
2023-05-17T00:18:08.021Z,45.73
2023-05-17T00:20:36.671Z,46.02
2023-05-17T00:23:04.376Z,45.92
2023-05-17T00:25:31.998Z,46.18
2023-05-17T00:27:59.613Z,46.20
2023-05-17T00:30:29.538Z,46.18
2023-05-17T00:32:57.820Z,46.22
2023-05-17T00:35:25.724Z,46.41
2023-05-17T00:37:53.471Z,46.59
2023-05-17T00:40:21.156Z,46.81
2023-05-17T00:42:48.964Z,46.79
2023-05-17T00:45:16.548Z,46.90
2023-05-17T00:47:44.460Z,46.95
2023-05-17T00:50:15.250Z,46.75
2023-05-17T00:52:43.066Z,46.93
2023-05-17T00:55:10.711Z,46.96
2023-05-17T00:57:38.707Z,47.00
2023-05-17T01:00:07.049Z,47.02
2023-05-17T01:02:35.136Z,47.18
2023-05-17T01:05:03.115Z,47.48
2023-05-17T01:07:35.057Z,47.32
2023-05-17T01:10:02.932Z,47.70
2023-05-17T01:12:51.043Z,48.02
2023-05-17T01:15:31.475Z,48.37
2023-05-17T01:18:26.584Z,48.37
2023-05-17T01:20:59.239Z,48.21
2023-05-17T01:24:04.155Z,48.83
2023-05-17T01:26:39.518Z,48.19
2023-05-17T01:29:10.137Z,48.71
2023-05-17T01:31:39.417Z,48.72
2023-05-17T01:34:10.946Z,48.68
2023-05-17T01:36:38.613Z,48.76
2023-05-17T01:39:06.199Z,48.81
2023-05-17T01:41:41.466Z,49.30
2023-05-17T01:44:35.764Z,49.45
2023-05-17T01:47:15.537Z,49.41
2023-05-17T01:49:48.904Z,49.39
2023-05-17T01:52:35.538Z,49.57
2023-05-17T01:55:31.131Z,49.22
2023-05-17T01:58:00.873Z,49.02
2023-05-17T02:00:29.885Z,49.18
2023-05-17T02:02:58.988Z,49.08
2023-05-17T02:05:26.838Z,49.26
2023-05-17T02:07:54.979Z,49.34
2023-05-17T02:10:22.930Z,49.35
2023-05-17T02:12:50.750Z,48.94
2023-05-17T02:15:18.419Z,48.89
2023-05-17T02:17:46.674Z,48.74
2023-05-17T02:20:16.235Z,48.98
2023-05-17T02:22:43.905Z,48.74
2023-05-17T02:25:11.579Z,48.52
2023-05-17T02:27:41.133Z,48.53
2023-05-17T02:30:09.463Z,48.59
2023-05-17T02:32:37.166Z,48.47
2023-05-17T02:35:05.476Z,48.33
2023-05-17T02:37:33.036Z,48.01
2023-05-17T02:40:00.645Z,47.79
2023-05-17T02:42:28.217Z,48.09
2023-05-17T02:44:58.142Z,47.79
2023-05-17T02:47:26.161Z,47.73
2023-05-17T02:49:53.972Z,47.83
2023-05-17T02:52:21.761Z,47.76
2023-05-17T02:54:49.778Z,47.58
2023-05-17T02:57:17.512Z,47.39
2023-05-17T02:59:45.158Z,47.29
2023-05-17T03:02:13.569Z,47.00
2023-05-17T03:04:41.325Z,46.54
2023-05-17T03:07:09.813Z,46.41
2023-05-17T03:09:38.247Z,46.28
2023-05-17T03:12:06.820Z,46.01
2023-05-17T03:14:35.789Z,45.85
2023-05-17T03:17:03.881Z,45.87
2023-05-17T03:19:33.841Z,45.75
2023-05-17T03:22:01.627Z,45.66
2023-05-17T03:24:30.734Z,45.59
2023-05-17T03:26:58.893Z,45.45
2023-05-17T03:29:26.451Z,45.32
2023-05-17T03:31:54.806Z,45.02
2023-05-17T03:34:22.580Z,45.10
2023-05-17T03:36:50.174Z,44.89
2023-05-17T03:39:17.795Z,44.58
2023-05-17T03:41:45.644Z,44.66
2023-05-17T03:44:14.391Z,44.30
2023-05-17T03:46:41.904Z,44.05
2023-05-17T03:49:11.785Z,43.84
2023-05-17T03:51:40.220Z,43.27
2023-05-17T03:54:07.836Z,43.12
2023-05-17T03:56:35.482Z,42.84
2023-05-17T03:59:03.328Z,42.57
2023-05-17T04:01:31.878Z,42.65
2023-05-17T04:04:01.619Z,42.44
2023-05-17T04:06:29.566Z,42.17
2023-05-17T04:08:59.506Z,41.93
2023-05-17T04:11:27.890Z,41.79
2023-05-17T04:13:57.057Z,41.65
2023-05-17T04:16:25.550Z,41.61
2023-05-17T04:18:53.440Z,41.27
2023-05-17T04:21:21.584Z,40.97
2023-05-17T04:23:51.674Z,41.13
2023-05-17T04:26:20.604Z,40.80
2023-05-17T04:28:48.854Z,40.38
2023-05-17T04:31:18.052Z,40.35
2023-05-17T04:33:47.021Z,39.87
2023-05-17T04:36:14.754Z,39.60
2023-05-17T04:38:43.259Z,39.33
2023-05-17T04:41:14.955Z,38.97
2023-05-17T04:43:43.908Z,38.59
2023-05-17T04:46:19.486Z,38.52
2023-05-17T04:48:48.241Z,38.29
2023-05-17T04:51:51.892Z,38.46
2023-05-17T04:54:19.732Z,37.83
2023-05-17T04:56:47.534Z,37.58
2023-05-17T04:59:23.746Z,37.38
2023-05-17T05:01:51.745Z,37.36
2023-05-17T05:08:34.773Z,36.76
2023-05-17T05:11:02.983Z,36.64
2023-05-17T05:13:32.267Z,36.11
2023-05-17T05:16:00.248Z,35.86
2023-05-17T05:18:28.276Z,35.59
2023-05-17T05:20:57.948Z,35.46
2023-05-17T05:23:27.523Z,35.53
2023-05-17T05:25:55.427Z,35.18
2023-05-17T05:28:23.086Z,34.96
2023-05-17T05:30:57.395Z,34.21
2023-05-17T05:33:25.701Z,34.20
2023-05-17T05:35:53.653Z,33.81
2023-05-17T05:38:21.367Z,33.67
2023-05-17T05:40:49.270Z,33.71
2023-05-17T05:43:42.245Z,33.52
2023-05-17T05:46:10.043Z,33.27
2023-05-17T05:48:41.828Z,32.92
2023-05-17T05:51:09.819Z,32.75
2023-05-17T05:53:40.329Z,32.68
2023-05-17T06:00:16.090Z,31.73
2023-05-17T06:02:43.797Z,31.66
2023-05-17T06:05:11.925Z,31.58
2023-05-17T06:07:39.840Z,31.33
2023-05-17T06:10:08.025Z,31.64
2023-05-17T06:12:35.880Z,30.86
2023-05-17T06:15:04.101Z,30.81
2023-05-17T06:17:33.529Z,30.96
2023-05-17T06:20:01.449Z,30.80
2023-05-17T06:22:53.604Z,30.41
2023-05-17T06:25:21.638Z,30.19
2023-05-17T06:27:50.086Z,30.70
2023-05-17T06:30:17.798Z,29.74
2023-05-17T06:32:45.460Z,29.79
2023-05-17T06:37:57.866Z,29.04
2023-05-17T06:40:25.518Z,28.92
2023-05-17T06:42:53.305Z,28.92
2023-05-17T06:45:21.897Z,28.68
2023-05-17T06:50:34.702Z,27.80
2023-05-17T06:53:02.974Z,27.47
2023-05-17T06:55:31.827Z,27.64
2023-05-17T06:58:00.389Z,27.25
2023-05-17T07:00:29.242Z,27.07
2023-05-17T07:02:57.139Z,26.66
2023-05-17T07:05:24.921Z,26.59
2023-05-17T07:07:53.203Z,26.33
2023-05-17T07:10:21.271Z,25.82
2023-05-17T07:12:48.845Z,25.77
2023-05-17T07:15:16.455Z,25.49
2023-05-17T07:17:44.238Z,25.19
2023-05-17T07:20:13.095Z,25.04
2023-05-17T07:22:41.433Z,24.81
2023-05-17T07:25:09.717Z,23.92
2023-05-17T07:27:37.587Z,24.05
2023-05-17T07:30:07.365Z,23.40
2023-05-17T07:32:53.725Z,23.53
2023-05-17T07:35:21.912Z,22.83
2023-05-17T07:37:49.781Z,23.38
2023-05-17T07:40:17.609Z,22.99
2023-05-17T07:42:45.330Z,22.58
2023-05-17T07:45:15.453Z,22.29
2023-05-17T07:47:48.121Z,22.32
2023-05-17T07:50:16.663Z,21.85
2023-05-17T07:52:44.313Z,21.58
2023-05-17T07:55:12.430Z,21.43
2023-05-17T07:57:40.292Z,20.99
2023-05-17T08:00:08.980Z,21.18
2023-05-17T08:02:41.315Z,20.67
2023-05-17T08:05:09.593Z,20.53
2023-05-17T08:07:37.284Z,19.81
2023-05-17T08:10:05.496Z,20.27
2023-05-17T08:12:34.132Z,19.83
2023-05-17T08:15:01.945Z,19.32
2023-05-17T08:17:30.664Z,19.79
2023-05-17T08:19:58.415Z,19.38
2023-05-17T08:22:26.582Z,19.00
2023-05-17T08:24:54.406Z,18.41
2023-05-17T08:27:22.272Z,18.64
2023-05-17T08:29:52.744Z,18.20
2023-05-17T08:32:21.310Z,18.44
2023-05-17T08:34:48.946Z,18.83
2023-05-17T08:37:19.100Z,18.59
2023-05-17T08:39:48.339Z,18.56
2023-05-17T08:42:21.824Z,18.03
2023-05-17T08:44:50.643Z,17.75
2023-05-17T08:47:26.357Z,17.84
2023-05-17T08:50:00.556Z,17.06
2023-05-17T08:52:35.609Z,16.85
2023-05-17T08:55:04.064Z,16.88
2023-05-17T08:57:37.847Z,16.74
2023-05-17T09:00:12.565Z,16.39
2023-05-17T09:02:42.432Z,16.21
2023-05-17T09:05:11.077Z,16.17
2023-05-17T09:07:38.859Z,15.91
2023-05-17T09:10:07.813Z,16.27
2023-05-17T09:12:36.417Z,16.23
2023-05-17T09:15:18.445Z,15.88
2023-05-17T09:17:57.068Z,15.84
2023-05-17T09:20:39.600Z,15.49
2023-05-17T09:23:10.314Z,15.26
2023-05-17T09:25:37.959Z,14.99
2023-05-17T09:28:10.429Z,14.72
2023-05-17T09:30:39.708Z,14.34
2023-05-17T09:33:15.162Z,14.15
2023-05-17T09:35:45.989Z,13.92
2023-05-17T09:38:14.306Z,13.96
2023-05-17T09:40:44.057Z,14.08
2023-05-17T09:43:12.671Z,14.21
2023-05-17T09:45:41.417Z,14.04
2023-05-17T09:48:13.926Z,13.64
2023-05-17T09:50:46.437Z,13.34
2023-05-17T09:53:26.620Z,12.82
2023-05-17T09:55:57.330Z,12.93
2023-05-17T09:58:26.251Z,12.48
2023-05-17T10:00:57.837Z,12.56
2023-05-17T10:03:37.117Z,12.58
2023-05-17T10:06:13.460Z,12.67
2023-05-17T10:08:53.197Z,12.60
2023-05-17T10:11:34.156Z,12.00
2023-05-17T10:14:13.327Z,11.95
2023-05-17T10:16:41.740Z,12.14
2023-05-17T10:19:11.753Z,12.20
2023-05-17T10:21:40.888Z,12.01
2023-05-17T10:24:10.202Z,11.91
2023-05-17T10:26:38.805Z,11.83
2023-05-17T10:29:07.494Z,11.83
2023-05-17T10:31:36.552Z,12.63
2023-05-17T10:34:06.595Z,12.37
2023-05-17T10:36:34.568Z,12.12
2023-05-17T10:39:02.624Z,11.89
2023-05-17T10:41:33.909Z,12.03
2023-05-17T10:44:04.487Z,12.23
2023-05-17T10:46:32.487Z,11.79
2023-05-17T10:49:01.394Z,11.43
2023-05-17T10:51:37.938Z,11.04
2023-05-17T10:54:11.968Z,10.59
2023-05-17T10:56:49.309Z,11.02
2023-05-17T10:59:28.202Z,11.41
2023-05-17T11:02:09.154Z,10.44
2023-05-17T11:04:51.115Z,11.32
2023-05-17T11:07:19.380Z,11.29
2023-05-17T11:09:51.024Z,11.66
2023-05-17T11:12:31.228Z,12.02
2023-05-17T11:15:00.566Z,11.89
2023-05-17T11:17:35.912Z,12.26
2023-05-17T11:20:31.906Z,12.12
2023-05-17T11:23:05.119Z,12.68
2023-05-17T11:25:39.586Z,12.64
2023-05-17T11:28:20.498Z,12.55
2023-05-17T11:30:52.169Z,12.16
2023-05-17T11:33:38.541Z,11.84
2023-05-17T11:36:15.548Z,12.51
2023-05-17T11:38:43.362Z,12.35
2023-05-17T11:41:27.008Z,12.59
2023-05-17T11:43:55.564Z,12.28
2023-05-17T11:46:25.607Z,12.25
2023-05-17T11:48:54.587Z,12.43
2023-05-17T11:51:25.094Z,12.66
2023-05-17T11:53:58.105Z,12.29
2023-05-17T11:56:39.457Z,12.79
2023-05-17T11:59:11.154Z,12.94
2023-05-17T12:01:44.260Z,12.52
2023-05-17T12:04:12.152Z,12.52
2023-05-17T12:06:40.667Z,12.36
2023-05-17T12:09:11.214Z,13.11
2023-05-17T12:12:07.194Z,13.48
2023-05-17T12:19:33.026Z,13.34
2023-05-17T12:22:08.745Z,13.97
2023-05-17T12:24:38.387Z,14.26
2023-05-17T12:27:06.664Z,14.57
2023-05-17T12:29:35.684Z,15.26
2023-05-17T12:32:04.532Z,16.09
2023-05-17T12:34:32.355Z,16.08
2023-05-17T12:37:00.362Z,16.19
2023-05-17T12:39:28.114Z,17.16
2023-05-17T12:41:56.458Z,17.93
2023-05-17T12:44:25.698Z,18.42
2023-05-17T12:46:56.318Z,18.52
2023-05-17T12:49:24.446Z,18.75
2023-05-17T12:51:52.169Z,19.32
2023-05-17T12:54:29.694Z,19.71
2023-05-17T12:56:57.640Z,20.05
2023-05-17T12:59:26.125Z,20.88
2023-05-17T13:01:58.475Z,21.19
2023-05-17T13:04:32.058Z,21.34
2023-05-17T13:07:02.517Z,21.04
2023-05-17T13:09:32.133Z,21.38
2023-05-17T13:12:10.774Z,21.12
2023-05-17T13:14:46.200Z,22.01
2023-05-17T13:17:15.528Z,22.04
2023-05-17T13:19:43.297Z,22.22
2023-05-17T13:22:11.131Z,22.49
2023-05-17T13:24:40.136Z,22.87
2023-05-17T13:27:08.376Z,22.31
2023-05-17T13:29:40.490Z,23.11
2023-05-17T13:32:11.655Z,22.65
2023-05-17T13:34:40.719Z,22.72
2023-05-17T13:37:12.117Z,23.17
2023-05-17T13:39:42.213Z,23.40
2023-05-17T13:42:11.457Z,23.40
2023-05-17T13:44:39.686Z,23.35
2023-05-17T13:47:07.788Z,23.60
2023-05-17T13:49:36.308Z,23.47
2023-05-17T13:52:04.342Z,23.53
2023-05-17T13:54:33.057Z,23.69
2023-05-17T13:57:02.227Z,23.88
2023-05-17T13:59:29.921Z,23.69
2023-05-17T14:01:58.188Z,23.69
2023-05-17T14:04:25.924Z,23.59
2023-05-17T14:06:55.213Z,23.95
2023-05-17T14:09:23.304Z,24.05
2023-05-17T14:11:53.048Z,24.45
2023-05-17T14:14:20.956Z,24.11
2023-05-17T14:16:49.521Z,24.48
2023-05-17T14:19:21.868Z,24.49
2023-05-17T14:21:50.465Z,24.48
2023-05-17T14:24:18.478Z,24.43
2023-05-17T14:26:46.287Z,24.71
2023-05-17T14:29:14.308Z,24.63
2023-05-17T14:31:42.581Z,24.67
2023-05-17T14:34:10.300Z,24.92
2023-05-17T14:36:39.530Z,24.90
2023-05-17T14:39:11.195Z,24.94
2023-05-17T14:41:39.715Z,24.63
2023-05-17T14:44:07.433Z,24.58
2023-05-17T14:46:35.033Z,25.00
2023-05-17T14:49:02.901Z,25.03
2023-05-17T14:51:30.703Z,25.27
2023-05-17T14:53:59.294Z,25.28
2023-05-17T14:56:29.133Z,25.20
2023-05-17T14:59:10.418Z,25.32
2023-05-17T15:01:38.664Z,25.41
2023-05-17T15:04:06.346Z,25.35
2023-05-17T15:06:34.112Z,25.62
2023-05-17T15:09:04.107Z,25.51
2023-05-17T15:11:31.845Z,25.43
2023-05-17T15:13:59.782Z,25.47
2023-05-17T15:16:27.624Z,25.45
2023-05-17T15:18:59.633Z,25.66
2023-05-17T15:21:27.983Z,25.58
2023-05-17T15:23:55.564Z,25.28
2023-05-17T15:26:23.288Z,25.58
2023-05-17T15:28:51.274Z,25.62
2023-05-17T15:31:19.198Z,26.03
2023-05-17T15:33:46.963Z,25.70
2023-05-17T15:36:16.385Z,25.76
2023-05-17T15:38:46.303Z,26.04
2023-05-17T15:41:16.900Z,26.11
2023-05-17T15:43:44.685Z,26.27
2023-05-17T15:46:12.350Z,26.11
2023-05-17T15:48:40.047Z,26.24
2023-05-17T15:51:07.706Z,26.20
2023-05-17T15:53:35.434Z,26.28
2023-05-17T15:56:03.137Z,26.38
2023-05-17T15:58:34.507Z,26.58
2023-05-17T16:01:04.713Z,26.48
2023-05-17T16:03:34.066Z,26.45
2023-05-17T16:06:04.438Z,26.53
2023-05-17T16:08:32.863Z,26.62
2023-05-17T16:11:02.493Z,26.64
2023-05-17T16:13:31.198Z,26.58
2023-05-17T16:16:00.273Z,26.45
2023-05-17T16:18:29.840Z,26.54
2023-05-17T16:21:04.260Z,26.79
2023-05-17T16:23:32.746Z,26.82
2023-05-17T16:26:00.405Z,27.04
2023-05-17T16:28:32.505Z,26.99
2023-05-17T16:31:01.371Z,27.13
2023-05-17T16:33:29.114Z,27.41
2023-05-17T16:35:58.080Z,27.27
2023-05-17T16:38:29.512Z,27.23
2023-05-17T16:40:57.654Z,27.37
2023-05-17T16:43:25.910Z,27.89
2023-05-17T16:45:53.683Z,27.42
2023-05-17T16:48:21.455Z,27.53
2023-05-17T16:50:49.773Z,27.47
2023-05-17T16:53:17.421Z,27.65
2023-05-17T16:55:45.089Z,27.52
2023-05-17T16:58:16.051Z,27.92
2023-05-17T17:00:44.176Z,27.86
2023-05-17T17:03:11.899Z,27.91
2023-05-17T17:05:39.461Z,28.10
2023-05-17T17:08:07.221Z,28.41
2023-05-17T17:10:36.145Z,28.22
2023-05-17T17:13:03.952Z,28.40
2023-05-17T17:15:31.716Z,28.42
2023-05-17T17:17:59.588Z,28.54
2023-05-17T17:20:27.324Z,28.42
2023-05-17T17:22:55.800Z,28.72
2023-05-17T17:25:24.861Z,28.66
2023-05-17T17:27:53.377Z,28.94
2023-05-17T17:30:21.815Z,28.96
2023-05-17T17:32:50.714Z,28.92
2023-05-17T17:35:18.480Z,29.09
2023-05-17T17:37:46.203Z,29.02
2023-05-17T17:40:14.090Z,29.16
2023-05-17T17:42:41.642Z,29.33
2023-05-17T17:45:09.760Z,29.70
2023-05-17T17:47:37.407Z,29.72
2023-05-17T17:50:05.670Z,29.60
2023-05-17T17:52:33.403Z,29.73
2023-05-17T17:55:01.168Z,29.78
2023-05-17T17:57:33.639Z,30.13
2023-05-17T18:00:01.347Z,30.56
2023-05-17T18:02:32.082Z,30.82
2023-05-17T18:04:59.758Z,30.99
2023-05-17T18:07:27.312Z,30.68
2023-05-17T18:09:56.602Z,30.92
2023-05-17T18:12:27.139Z,30.99
2023-05-17T18:14:54.981Z,31.07
2023-05-17T18:17:22.890Z,31.35
2023-05-17T18:19:52.127Z,31.45
2023-05-17T18:22:19.776Z,31.91
2023-05-17T18:24:47.482Z,31.61
2023-05-17T18:27:15.242Z,31.44
2023-05-17T18:29:43.075Z,31.63
2023-05-17T18:32:10.842Z,32.13
2023-05-17T18:34:38.574Z,32.22
2023-05-17T18:37:06.319Z,32.32
2023-05-17T18:39:34.320Z,32.40
2023-05-17T18:42:02.673Z,32.70
2023-05-17T18:44:30.546Z,32.75
2023-05-17T18:46:58.311Z,33.19
2023-05-17T18:49:27.296Z,33.49
2023-05-17T18:51:55.099Z,33.78
2023-05-17T18:54:23.552Z,34.02
2023-05-17T18:56:51.182Z,34.01
2023-05-17T18:59:19.422Z,34.40
2023-05-17T19:01:47.166Z,34.54
2023-05-17T19:04:14.825Z,35.04
2023-05-17T19:06:42.524Z,34.89
2023-05-17T19:09:10.184Z,34.81
2023-05-17T19:11:37.907Z,35.24
2023-05-17T19:14:06.014Z,35.22
2023-05-17T19:16:33.725Z,35.53
2023-05-17T19:19:01.837Z,35.80
2023-05-17T19:21:32.806Z,36.06
2023-05-17T19:24:01.111Z,35.75
2023-05-17T19:26:29.267Z,35.51
2023-05-17T19:28:57.084Z,35.58
2023-05-17T19:31:24.716Z,35.75
2023-05-17T19:33:52.331Z,35.77
2023-05-17T19:36:19.992Z,35.86
2023-05-17T19:38:49.333Z,35.97
2023-05-17T19:41:18.245Z,36.06
2023-05-17T19:43:45.991Z,36.28
2023-05-17T19:46:13.718Z,36.40
2023-05-17T19:48:41.401Z,36.39
2023-05-17T19:51:09.245Z,36.40
2023-05-17T19:53:50.728Z,36.75
2023-05-17T19:56:20.020Z,36.92
2023-05-17T19:58:47.588Z,37.31
2023-05-17T20:01:15.618Z,37.61
2023-05-17T20:03:43.590Z,37.61
2023-05-17T20:06:14.427Z,37.53
2023-05-17T20:08:42.594Z,37.54
2023-05-17T20:11:10.985Z,37.71
2023-05-17T20:13:40.571Z,37.83
2023-05-17T20:16:13.203Z,37.85
2023-05-17T20:18:45.100Z,38.44
2023-05-17T20:21:19.835Z,38.15
2023-05-17T20:23:47.790Z,38.38
2023-05-17T20:26:25.649Z,38.35
2023-05-17T20:28:54.169Z,38.69
2023-05-17T20:31:21.912Z,38.63
2023-05-17T20:33:49.639Z,39.06
2023-05-17T20:36:17.271Z,39.30
2023-05-17T20:38:45.044Z,38.78
2023-05-17T20:41:15.022Z,38.69
2023-05-17T20:43:46.975Z,39.15
2023-05-17T20:46:14.803Z,38.80
2023-05-17T20:48:43.274Z,39.25
2023-05-17T20:51:11.198Z,39.48
2023-05-17T20:53:40.050Z,39.60
2023-05-17T20:56:09.253Z,39.50
2023-05-17T20:58:36.963Z,39.67
2023-05-17T21:01:05.934Z,39.77
2023-05-17T21:03:34.157Z,39.76
2023-05-17T21:06:02.460Z,39.71
2023-05-17T21:08:30.109Z,39.60
2023-05-17T21:10:57.778Z,39.71
2023-05-17T21:13:25.910Z,39.87
2023-05-17T21:15:54.612Z,39.64
2023-05-17T21:18:23.835Z,39.71
2023-05-17T21:20:52.293Z,40.05
2023-05-17T21:23:20.371Z,40.41
2023-05-17T21:25:49.203Z,40.20
2023-05-17T21:28:17.077Z,40.06
2023-05-17T21:30:44.792Z,40.05
2023-05-17T21:33:12.642Z,40.22
2023-05-17T21:35:40.241Z,40.21
2023-05-17T21:38:09.758Z,40.36
2023-05-17T21:40:39.012Z,40.68
2023-05-17T21:43:13.748Z,40.79
2023-05-17T21:45:41.991Z,41.15
2023-05-17T21:48:09.667Z,41.18
2023-05-17T21:50:37.500Z,41.31
2023-05-17T21:53:05.105Z,41.37
2023-05-17T21:55:41.341Z,41.32
2023-05-17T21:58:21.425Z,41.34
2023-05-17T22:00:49.226Z,41.60
2023-05-17T22:03:16.952Z,41.42
2023-05-17T22:05:44.776Z,41.57
2023-05-17T22:08:12.343Z,41.78
2023-05-17T22:10:40.560Z,41.74
2023-05-17T22:13:12.273Z,42.07
2023-05-17T22:15:41.775Z,41.91
2023-05-17T22:18:12.610Z,41.72
2023-05-17T22:20:40.493Z,42.22
2023-05-17T22:23:08.180Z,42.45
2023-05-17T22:25:35.916Z,42.97
2023-05-17T22:28:03.920Z,42.93
2023-05-17T22:30:31.944Z,43.12
2023-05-17T22:33:01.182Z,43.33
2023-05-17T22:35:29.147Z,42.96
2023-05-17T22:50:36.954Z,43.59
2023-05-17T22:53:06.047Z,44.04
2023-05-17T22:55:33.684Z,44.32
2023-05-17T22:58:01.289Z,43.96
2023-05-17T23:00:29.255Z,44.54
2023-05-17T23:02:57.015Z,44.65
2023-05-17T23:05:24.976Z,44.74
2023-05-17T23:07:53.489Z,44.74
2023-05-17T23:10:21.216Z,44.59
2023-05-17T23:12:51.491Z,44.84
2023-05-17T23:15:20.790Z,44.82
2023-05-17T23:17:48.793Z,44.78
2023-05-17T23:20:17.086Z,44.93
2023-05-17T23:22:44.696Z,44.92
2023-05-17T23:25:12.349Z,45.04
2023-05-17T23:27:40.035Z,45.05
2023-05-17T23:30:09.415Z,45.25
2023-05-17T23:32:37.366Z,45.17
2023-05-17T23:35:05.351Z,45.11
2023-05-17T23:37:37.184Z,45.21
2023-05-17T23:40:05.756Z,45.43
2023-05-17T23:42:34.132Z,45.54
2023-05-17T23:45:03.460Z,45.64
2023-05-17T23:47:34.590Z,45.94
2023-05-17T23:50:03.485Z,46.12
2023-05-17T23:52:33.384Z,46.04
2023-05-17T23:55:01.724Z,46.22
2023-05-17T23:57:32.240Z,46.34
